Gogama, Canada
Current Conditions -  °F | °C
As of 6:00 AM on Friday 31 Oct 2014 (Local Time) from CYTS Reporting Station
Light Snow Light Snow  
Wind Chill: -9°   Ceiling: 15000
Heat Index: -4°   Visibility: 8mi
Dew Point: -5°   Wind: 8mph
Humidity: 93%   Direction: 350°N
Pressure: 30.14"   Gusts: NA
Location:  47.67°N, 81.72°W
Report Text: CYTS 311000Z 35007KT 8SM -SN FEW010 SCT030 BKN150 M04/M05 A3014 RMK SF2SC2AC3 PRESRR SLP225
Loading
Personal Weather Stations






























Interactive Weather Map
Tropical Storm Tracking
New forecast layout! Learn more

10-Day Weather Forecast

Advertisements
Track Severe Weather on mobile